Time;durP1;ratioP1;P1;durP2;ratioP2;P2;SDS_P1;SDS_P2;PMS_P1;PMS_P2;Temp;Humidity;BMP_temperature;BMP_pressure;BME280_temperature;BME280_humidity;BME280_pressure;Samples;Min_cycle;Max_cycle;Signal;HPM_P1;HPM_P2
2021/03/15 00:00:20;;;;;;;5.77;4.47;;;6.30;66.10;;;;;;5047219;28;20051;-84
2021/03/15 00:02:48;;;;;;;5.13;4.47;;;6.30;65.90;;;;;;5036337;28;20076;-84
2021/03/15 00:05:14;;;;;;;5.13;4.63;;;6.30;65.70;;;;;;5045667;28;20032;-84
2021/03/15 00:07:41;;;;;;;5.20;4.50;;;6.30;65.80;;;;;;5042035;28;20018;-84
2021/03/15 00:10:08;;;;;;;5.10;4.57;;;6.30;65.80;;;;;;5048924;28;20061;-84
2021/03/15 00:12:34;;;;;;;6.97;6.27;;;6.30;65.60;;;;;;5047349;28;20055;-84
2021/03/15 00:15:01;;;;;;;9.10;8.20;;;6.20;65.90;;;;;;5042103;28;20047;-85
2021/03/15 00:17:27;;;;;;;8.97;7.87;;;6.20;66.10;;;;;;5053917;28;20392;-84
2021/03/15 00:19:53;;;;;;;9.37;8.47;;;6.20;66.30;;;;;;5040527;28;20500;-84
2021/03/15 00:22:19;;;;;;;9.50;8.40;;;6.10;66.50;;;;;;5043057;28;20053;-84
2021/03/15 00:24:45;;;;;;;11.80;9.10;;;6.10;66.50;;;;;;5037301;28;20147;-84
2021/03/15 00:27:10;;;;;;;9.53;8.17;;;6.00;66.70;;;;;;5038845;28;20691;-84
2021/03/15 00:29:36;;;;;;;13.13;9.47;;;6.00;67.00;;;;;;5040693;28;20033;-84
2021/03/15 00:32:02;;;;;;;11.03;8.93;;;6.00;67.00;;;;;;5036721;28;20075;-84
2021/03/15 00:34:28;;;;;;;11.03;9.20;;;6.00;66.90;;;;;;5035283;28;20056;-85
2021/03/15 00:36:54;;;;;;;12.10;10.80;;;6.00;66.90;;;;;;5040634;28;20021;-84
2021/03/15 00:39:20;;;;;;;11.63;10.23;;;5.90;66.90;;;;;;5043595;28;20079;-85
2021/03/15 00:41:46;;;;;;;13.17;11.50;;;5.90;67.10;;;;;;5040139;28;20025;-85
2021/03/15 00:44:13;;;;;;;14.90;13.07;;;5.90;67.10;;;;;;5036504;28;20022;-85
2021/03/15 00:46:38;;;;;;;13.37;11.90;;;5.80;67.20;;;;;;5039328;28;20510;-85
2021/03/15 00:49:04;;;;;;;13.83;11.93;;;5.90;67.40;;;;;;5039161;28;20049;-85
2021/03/15 00:51:30;;;;;;;14.60;13.00;;;5.90;67.30;;;;;;5039312;28;20025;-85
2021/03/15 00:53:56;;;;;;;14.80;13.27;;;5.90;67.30;;;;;;5034230;28;20033;-85
2021/03/15 00:56:21;;;;;;;14.00;12.60;;;5.90;67.30;;;;;;5046880;28;20036;-85
2021/03/15 00:58:47;;;;;;;12.67;11.37;;;5.90;67.30;;;;;;5043025;28;20071;-85
2021/03/15 01:01:19;;;;;;;13.43;12.03;;;6.00;67.30;;;;;;5034974;28;20087;-85
2021/03/15 01:03:45;;;;;;;12.63;11.33;;;6.00;67.30;;;;;;5041484;28;20048;-85
2021/03/15 01:06:13;;;;;;;13.00;11.30;;;6.00;67.30;;;;;;5041251;28;20021;-85
2021/03/15 01:08:40;;;;;;;11.77;10.53;;;6.00;67.20;;;;;;5038907;28;20388;-85
2021/03/15 01:11:05;;;;;;;12.47;11.17;;;6.00;67.20;;;;;;5034490;28;20380;-85
2021/03/15 01:13:32;;;;;;;15.07;11.40;;;6.10;67.20;;;;;;5044178;28;20024;-85
2021/03/15 01:15:58;;;;;;;13.27;11.73;;;6.10;67.20;;;;;;5041700;28;20032;-85
2021/03/15 01:18:23;;;;;;;12.97;11.53;;;6.10;67.10;;;;;;5040710;28;20052;-85
2021/03/15 01:20:49;;;;;;;12.20;10.60;;;6.00;67.10;;;;;;5049777;28;20049;-85
2021/03/15 01:23:15;;;;;;;11.83;10.40;;;5.90;67.40;;;;;;5040062;28;20026;-85
2021/03/15 01:25:42;;;;;;;12.23;10.27;;;6.00;67.50;;;;;;5038370;28;20025;-84
2021/03/15 01:28:13;;;;;;;12.47;10.93;;;5.90;67.50;;;;;;5036597;28;20041;-85
2021/03/15 01:30:40;;;;;;;11.50;9.97;;;5.90;67.60;;;;;;5041296;28;20032;-85
2021/03/15 01:33:06;;;;;;;12.30;11.00;;;5.90;67.60;;;;;;5041468;28;20083;-85
2021/03/15 01:35:33;;;;;;;13.03;11.13;;;6.00;67.60;;;;;;5044195;28;20119;-85
2021/03/15 01:38:00;;;;;;;11.47;10.10;;;6.00;67.60;;;;;;5047379;28;20523;-84
2021/03/15 01:40:26;;;;;;;13.47;11.33;;;6.00;67.50;;;;;;5035153;28;20056;-85
2021/03/15 01:42:52;;;;;;;12.77;11.40;;;6.00;67.60;;;;;;5040175;28;20407;-84
2021/03/15 01:45:18;;;;;;;11.83;10.03;;;5.90;67.50;;;;;;5050864;28;20043;-84
2021/03/15 01:47:46;;;;;;;12.47;11.00;;;5.90;67.60;;;;;;5038692;28;20025;-84
2021/03/15 01:50:14;;;;;;;12.40;10.77;;;5.90;67.90;;;;;;5051538;28;20124;-84
2021/03/15 01:52:40;;;;;;;14.70;13.07;;;5.90;67.80;;;;;;5039681;28;20396;-84
2021/03/15 01:55:09;;;;;;;16.63;12.70;;;5.90;67.80;;;;;;5045863;28;20029;-84
2021/03/15 01:57:36;;;;;;;15.90;13.43;;;5.90;67.90;;;;;;5037823;28;20040;-84
2021/03/15 02:00:05;;;;;;;13.67;11.27;;;6.00;67.90;;;;;;5035733;28;20028;-85
2021/03/15 02:02:31;;;;;;;12.80;11.40;;;5.90;67.70;;;;;;5048840;28;20053;-84
2021/03/15 02:04:57;;;;;;;11.30;9.80;;;5.90;67.60;;;;;;5045323;28;20029;-85
2021/03/15 02:07:23;;;;;;;12.43;10.80;;;5.90;68.00;;;;;;5037416;28;20033;-85
2021/03/15 02:09:49;;;;;;;12.67;10.77;;;6.00;67.80;;;;;;5048151;28;20553;-85
2021/03/15 02:12:56;;;;;;;13.83;11.63;;;5.90;67.80;;;;;;5055984;28;20036;-85
2021/03/15 02:15:27;;;;;;;13.67;11.93;;;5.90;67.70;;;;;;5064591;28;20025;-85
2021/03/15 02:18:05;;;;;;;13.50;11.87;;;5.90;67.70;;;;;;5057425;28;20075;-85
2021/03/15 02:21:01;;;;;;;15.93;12.93;;;5.90;67.80;;;;;;5052976;28;20021;-85
2021/03/15 02:23:47;;;;;;;5.13;4.53;;;5.90;68.40;;;;;;5045158;28;20039;-84
2021/03/15 02:26:31;;;;;;;6.50;5.80;;;5.80;67.70;;;;;;5046150;28;20139;-84
2021/03/15 02:29:06;;;;;;;10.83;8.73;;;5.70;67.70;;;;;;5059447;28;20439;-84
2021/03/15 02:31:41;;;;;;;12.60;10.47;;;5.70;68.10;;;;;;5052303;28;20476;-84
2021/03/15 02:34:40;;;;;;;7.60;6.80;;;5.70;68.30;;;;;;5048729;28;20056;-85
2021/03/15 02:37:08;;;;;;;7.67;6.60;;;5.70;68.50;;;;;;5040264;28;20392;-85
2021/03/15 02:39:38;;;;;;;9.87;8.20;;;5.70;68.30;;;;;;5036597;28;20500;-85
2021/03/15 02:42:13;;;;;;;9.10;7.77;;;5.80;68.30;;;;;;5045899;28;20025;-85
2021/03/15 02:44:39;;;;;;;10.27;8.90;;;5.80;68.20;;;;;;5041485;28;20079;-84
2021/03/15 02:47:13;;;;;;;8.23;7.33;;;5.80;68.20;;;;;;5040141;28;20021;-84
2021/03/15 02:49:42;;;;;;;9.37;7.40;;;5.80;68.20;;;;;;5042629;28;20391;-84
2021/03/15 02:52:10;;;;;;;9.13;7.50;;;5.80;68.20;;;;;;5043546;28;20503;-85
2021/03/15 02:54:38;;;;;;;10.27;8.80;;;5.90;68.30;;;;;;5038397;28;20029;-85
2021/03/15 02:57:06;;;;;;;8.90;7.77;;;5.80;68.00;;;;;;5051243;28;20034;-85
2021/03/15 02:59:33;;;;;;;9.63;8.63;;;5.70;68.30;;;;;;5039697;28;20033;-84
2021/03/15 03:02:00;;;;;;;7.87;6.70;;;5.60;68.60;;;;;;5054770;28;20024;-85
2021/03/15 03:04:28;;;;;;;8.40;7.30;;;5.60;68.50;;;;;;5044551;28;20148;-85
2021/03/15 03:06:55;;;;;;;8.33;7.20;;;5.60;68.90;;;;;;5041569;28;20029;-85
2021/03/15 03:09:22;;;;;;;8.90;7.20;;;5.60;69.00;;;;;;5043549;28;20021;-85
2021/03/15 03:11:50;;;;;;;50.17;9.47;;;5.60;68.90;;;;;;5052476;28;20032;-85
2021/03/15 03:14:17;;;;;;;8.33;7.43;;;5.60;68.90;;;;;;5048152;28;20036;-85
2021/03/15 03:16:43;;;;;;;10.17;8.87;;;5.50;69.00;;;;;;5050318;28;20028;-85
2021/03/15 03:19:15;;;;;;;10.67;8.93;;;5.50;69.20;;;;;;5043583;28;20038;-85
2021/03/15 03:21:42;;;;;;;10.60;8.73;;;5.60;69.20;;;;;;5041901;28;20396;-85
2021/03/15 03:24:09;;;;;;;12.43;9.77;;;5.60;69.30;;;;;;5045988;28;20029;-85
2021/03/15 03:26:37;;;;;;;9.50;8.13;;;5.70;69.10;;;;;;5044210;28;20102;-85
2021/03/15 03:29:06;;;;;;;8.77;7.40;;;5.60;69.00;;;;;;5045031;28;20111;-85
2021/03/15 03:31:34;;;;;;;8.07;7.13;;;5.70;69.20;;;;;;5049719;28;20033;-85
2021/03/15 03:34:01;;;;;;;9.13;7.70;;;5.70;69.10;;;;;;5038632;28;20042;-85
2021/03/15 03:36:28;;;;;;;9.93;8.60;;;5.70;69.00;;;;;;5046259;28;20408;-84
2021/03/15 03:38:54;;;;;;;10.67;8.40;;;5.70;69.10;;;;;;5044610;28;20070;-84
2021/03/15 03:41:20;;;;;;;11.70;9.13;;;5.70;69.00;;;;;;5045749;28;20078;-85
2021/03/15 03:43:46;;;;;;;10.00;8.60;;;5.70;68.90;;;;;;5042142;28;20029;-84
2021/03/15 03:46:14;;;;;;;11.57;8.80;;;5.70;68.80;;;;;;5045464;28;20104;-85
2021/03/15 03:48:40;;;;;;;11.17;9.17;;;5.60;69.00;;;;;;5038881;28;20032;-85
2021/03/15 03:51:07;;;;;;;10.77;8.97;;;5.60;69.00;;;;;;5041552;28;20021;-85
2021/03/15 03:53:57;;;;;;;12.40;9.60;;;5.50;69.20;;;;;;5037705;28;20024;-85
2021/03/15 03:56:46;;;;;;;11.50;10.17;;;5.50;69.40;;;;;;5050397;28;20551;-85
2021/03/15 03:59:16;;;;;;;10.23;8.63;;;5.50;69.50;;;;;;5044426;28;20401;-85
2021/03/15 04:01:45;;;;;;;8.93;7.70;;;5.60;69.40;;;;;;5045959;28;20075;-85
2021/03/15 04:04:15;;;;;;;10.63;8.13;;;5.50;69.40;;;;;;5036289;28;20080;-85
2021/03/15 04:06:44;;;;;;;8.90;7.90;;;5.50;69.50;;;;;;5036742;28;20018;-85
2021/03/15 04:09:13;;;;;;;8.87;7.50;;;5.60;69.50;;;;;;5043222;28;20097;-85
2021/03/15 04:11:44;;;;;;;9.33;8.27;;;5.60;69.30;;;;;;5050654;28;20036;-85
2021/03/15 04:14:12;;;;;;;9.20;8.03;;;5.60;69.30;;;;;;5042279;28;20033;-85
2021/03/15 04:16:41;;;;;;;9.23;7.73;;;5.50;69.20;;;;;;5045908;28;20029;-85
2021/03/15 04:19:09;;;;;;;12.57;8.97;;;5.40;69.70;;;;;;5043194;28;20118;-85
2021/03/15 04:21:35;;;;;;;8.40;7.47;;;5.40;69.80;;;;;;5043905;28;20028;-85
2021/03/15 04:24:03;;;;;;;9.17;7.77;;;5.50;70.10;;;;;;5047971;28;20033;-85
2021/03/15 04:26:31;;;;;;;9.37;7.83;;;5.50;69.80;;;;;;5048308;28;20025;-85
2021/03/15 04:28:58;;;;;;;10.47;7.63;;;5.40;69.70;;;;;;5045083;28;20079;-85
2021/03/15 04:31:26;;;;;;;9.77;8.17;;;5.40;70.00;;;;;;5046468;28;20033;-85
2021/03/15 04:33:55;;;;;;;7.63;6.07;;;5.40;70.20;;;;;;5042090;28;20107;-85
2021/03/15 04:36:21;;;;;;;7.40;6.10;;;5.40;70.00;;;;;;5040177;28;20049;-85
2021/03/15 04:38:47;;;;;;;7.70;5.80;;;5.40;69.90;;;;;;5049646;28;20017;-84
2021/03/15 04:41:16;;;;;;;7.00;5.87;;;5.40;70.00;;;;;;5041996;28;20463;-85
2021/03/15 04:43:42;;;;;;;5.70;5.00;;;5.50;70.00;;;;;;5038641;28;20024;-84
2021/03/15 04:46:09;;;;;;;7.03;5.73;;;5.40;69.70;;;;;;5039004;28;20484;-84
2021/03/15 04:48:37;;;;;;;7.27;6.20;;;5.50;70.00;;;;;;5049223;28;20033;-84
2021/03/15 04:51:05;;;;;;;7.63;5.77;;;5.60;69.90;;;;;;5034519;28;20611;-85
2021/03/15 04:53:33;;;;;;;16.53;7.13;;;5.50;69.70;;;;;;5043061;28;20091;-84
2021/03/15 04:56:06;;;;;;;23.87;8.00;;;5.50;69.80;;;;;;5044614;28;20045;-84
2021/03/15 04:58:34;;;;;;;7.60;6.80;;;5.40;70.00;;;;;;5046594;28;20575;-85
2021/03/15 05:01:03;;;;;;;9.30;7.63;;;5.50;70.30;;;;;;5044230;28;20435;-84
2021/03/15 05:03:29;;;;;;;10.17;8.00;;;5.50;70.30;;;;;;5034262;28;20022;-84
2021/03/15 05:05:56;;;;;;;8.80;6.67;;;5.40;70.20;;;;;;5037069;28;20560;-84
2021/03/15 05:08:35;;;;;;;7.80;6.50;;;5.50;70.80;;;;;;5042132;28;20040;-85
2021/03/15 05:11:02;;;;;;;14.47;7.03;;;5.60;70.60;;;;;;5035086;28;20059;-84
2021/03/15 05:13:29;;;;;;;6.83;6.13;;;5.80;70.50;;;;;;5040299;28;20029;-84
2021/03/15 05:15:57;;;;;;;7.73;5.80;;;5.80;70.20;;;;;;5039242;28;20026;-84
2021/03/15 05:18:24;;;;;;;7.27;6.20;;;5.80;69.70;;;;;;5049781;28;20099;-84
2021/03/15 05:20:51;;;;;;;6.87;6.00;;;5.80;69.90;;;;;;5037532;28;20124;-84
2021/03/15 05:23:17;;;;;;;8.13;5.77;;;5.80;69.90;;;;;;5044709;28;20427;-84
2021/03/15 05:25:45;;;;;;;8.67;7.07;;;5.70;69.90;;;;;;5037491;28;20045;-84
2021/03/15 05:28:14;;;;;;;10.33;8.03;;;5.80;69.90;;;;;;5035056;28;20033;-84
2021/03/15 05:30:41;;;;;;;11.03;7.17;;;5.80;69.60;;;;;;5035726;28;20032;-84
2021/03/15 05:33:12;;;;;;;7.97;5.97;;;5.70;69.60;;;;;;5049957;28;20087;-84
2021/03/15 05:35:39;;;;;;;7.27;5.43;;;5.60;69.80;;;;;;5038855;28;20026;-85
2021/03/15 05:38:05;;;;;;;5.70;4.30;;;5.60;69.70;;;;;;5043729;28;20648;-84
2021/03/15 05:40:31;;;;;;;6.13;4.00;;;5.60;69.70;;;;;;5037682;28;20025;-84
2021/03/15 05:43:17;;;;;;;5.07;3.73;;;5.50;69.70;;;;;;5052816;28;20021;-84
2021/03/15 05:45:51;;;;;;;6.00;4.23;;;5.50;69.80;;;;;;5052438;28;20036;-84
2021/03/15 05:48:41;;;;;;;4.80;4.10;;;5.50;69.80;;;;;;5037676;28;20036;-84
2021/03/15 05:51:17;;;;;;;5.23;4.07;;;5.40;70.20;;;;;;5042556;28;20571;-84
2021/03/15 05:54:16;;;;;;;5.10;4.27;;;5.30;70.30;;;;;;5049072;28;20079;-84
2021/03/15 05:56:42;;;;;;;6.30;4.60;;;5.30;70.50;;;;;;5047020;28;20064;-84
2021/03/15 05:59:11;;;;;;;9.80;4.70;;;5.30;70.50;;;;;;5048187;28;20484;-85
2021/03/15 06:01:47;;;;;;;8.40;5.23;;;5.30;70.60;;;;;;5046163;28;20431;-85
2021/03/15 06:04:57;;;;;;;15.30;8.27;;;5.30;70.60;;;;;;5045557;28;20037;-84
2021/03/15 06:07:32;;;;;;;10.47;5.33;;;5.30;70.70;;;;;;5037040;28;20044;-85
2021/03/15 06:10:07;;;;;;;8.30;5.97;;;5.30;70.50;;;;;;5038751;28;20492;-84
2021/03/15 06:12:46;;;;;;;6.83;5.50;;;5.30;70.80;;;;;;5043011;28;20030;-84
2021/03/15 06:15:14;;;;;;;7.97;5.53;;;5.40;71.00;;;;;;5039531;28;20029;-84
2021/03/15 06:17:40;;;;;;;9.97;8.47;;;5.40;70.70;;;;;;5044875;28;20037;-84
2021/03/15 06:20:06;;;;;;;8.93;7.33;;;5.40;71.00;;;;;;5048744;28;20029;-85
2021/03/15 06:22:33;;;;;;;9.17;7.30;;;5.50;71.10;;;;;;5050524;28;20025;-85
2021/03/15 06:25:00;;;;;;;9.33;6.90;;;5.60;71.00;;;;;;5037595;28;20039;-85
2021/03/15 06:27:28;;;;;;;9.87;7.63;;;5.60;70.80;;;;;;5046087;28;20116;-85
2021/03/15 06:29:56;;;;;;;7.67;6.43;;;5.80;70.60;;;;;;5039744;28;20037;-85
2021/03/15 06:32:25;;;;;;;14.37;9.33;;;5.80;70.20;;;;;;5048791;28;20076;-85
2021/03/15 06:34:54;;;;;;;11.57;7.23;;;5.80;70.20;;;;;;5051825;28;20045;-84
2021/03/15 06:37:20;;;;;;;9.67;5.07;;;5.80;70.10;;;;;;5051711;28;20029;-84
2021/03/15 06:39:48;;;;;;;8.00;4.70;;;5.70;69.90;;;;;;5036783;28;20033;-84
2021/03/15 06:42:16;;;;;;;6.07;4.33;;;5.70;70.10;;;;;;5044285;28;20028;-84
2021/03/15 06:44:43;;;;;;;6.47;4.57;;;5.70;70.40;;;;;;5036411;28;20030;-84
2021/03/15 06:47:09;;;;;;;9.10;4.77;;;5.60;70.20;;;;;;5037478;28;20559;-84
2021/03/15 06:49:35;;;;;;;6.60;4.50;;;5.60;70.40;;;;;;5038210;28;20030;-85
2021/03/15 06:52:04;;;;;;;6.87;4.10;;;5.70;70.50;;;;;;5042783;28;20022;-84
2021/03/15 06:54:29;;;;;;;7.60;4.40;;;5.70;70.50;;;;;;5037384;28;20026;-84
2021/03/15 06:57:11;;;;;;;8.33;4.80;;;5.70;70.20;;;;;;5044390;28;20032;-84
2021/03/15 06:59:51;;;;;;;8.97;4.30;;;5.70;70.30;;;;;;5044411;28;20428;-84
2021/03/15 07:02:24;;;;;;;11.00;4.60;;;5.70;70.50;;;;;;5035075;28;20029;-84
2021/03/15 07:04:51;;;;;;;6.37;4.90;;;5.70;70.60;;;;;;5039838;28;20109;-84
2021/03/15 07:07:28;;;;;;;6.90;4.17;;;5.80;70.30;;;;;;5047349;28;20028;-84
2021/03/15 07:09:55;;;;;;;8.50;4.23;;;5.80;70.30;;;;;;5049150;28;20025;-84
2021/03/15 07:12:23;;;;;;;6.03;4.50;;;5.80;70.20;;;;;;5038505;28;20071;-84
2021/03/15 07:14:50;;;;;;;7.33;4.13;;;5.70;70.30;;;;;;5042383;28;20025;-84
2021/03/15 07:17:27;;;;;;;8.53;4.57;;;5.80;70.40;;;;;;5035908;28;20065;-84
2021/03/15 07:19:55;;;;;;;5.63;3.73;;;5.80;70.40;;;;;;5041721;28;20033;-84
2021/03/15 07:22:24;;;;;;;7.03;4.73;;;5.90;70.30;;;;;;5051271;28;20055;-84
2021/03/15 07:25:04;;;;;;;8.70;4.60;;;5.90;70.20;;;;;;5049527;28;20033;-84
2021/03/15 07:27:31;;;;;;;8.60;5.77;;;6.00;70.00;;;;;;5037793;28;20388;-84
2021/03/15 07:29:57;;;;;;;11.33;5.70;;;5.90;69.80;;;;;;5050002;28;20029;-84
2021/03/15 07:32:42;;;;;;;10.63;6.60;;;6.00;70.10;;;;;;5049875;28;20036;-84
2021/03/15 07:35:24;;;;;;;8.03;5.50;;;6.00;69.90;;;;;;5045854;28;20050;-84
2021/03/15 07:37:50;;;;;;;9.35;5.72;;;6.20;69.70;;;;;;5035724;28;20025;-84
2021/03/15 07:40:40;;;;;;;5.20;4.50;;;6.30;69.90;;;;;;5034699;28;20037;-84
2021/03/15 07:43:09;;;;;;;7.03;4.80;;;6.30;69.00;;;;;;5039756;28;20496;-84
2021/03/15 07:45:43;;;;;;;7.60;4.87;;;6.30;68.90;;;;;;5044692;28;20025;-84
2021/03/15 07:48:10;;;;;;;8.03;4.77;;;6.40;69.00;;;;;;5042264;28;20029;-84
2021/03/15 07:50:37;;;;;;;8.47;5.10;;;6.40;68.90;;;;;;5038240;28;20037;-84
2021/03/15 07:53:06;;;;;;;8.93;5.10;;;6.40;68.50;;;;;;5045504;28;20468;-84
2021/03/15 07:55:37;;;;;;;10.17;5.70;;;6.30;68.80;;;;;;5041300;28;20033;-84
2021/03/15 07:58:43;;;;;;;8.27;5.57;;;6.40;68.60;;;;;;5047927;28;20033;-84
2021/03/15 08:01:09;;;;;;;8.30;6.07;;;6.30;68.60;;;;;;5032943;28;20049;-84
2021/03/15 08:03:39;;;;;;;7.53;5.87;;;6.30;68.70;;;;;;5047302;28;20400;-85
2021/03/15 08:06:06;;;;;;;6.23;5.10;;;6.30;68.70;;;;;;5043004;28;20021;-84
2021/03/15 08:08:32;;;;;;;9.00;6.37;;;6.30;68.80;;;;;;5047867;28;20022;-84
2021/03/15 08:10:58;;;;;;;12.23;7.70;;;6.30;69.00;;;;;;5046239;28;20120;-84
2021/03/15 08:13:27;;;;;;;10.17;7.27;;;6.50;69.00;;;;;;5044283;28;20044;-84
2021/03/15 08:15:59;;;;;;;12.03;7.53;;;6.50;68.60;;;;;;5049140;28;20037;-84
2021/03/15 08:18:30;;;;;;;12.50;6.65;;;6.60;68.80;;;;;;5034980;28;20480;-84
2021/03/15 08:21:01;;;;;;;17.03;7.47;;;6.70;68.60;;;;;;5036374;28;20060;-84
2021/03/15 08:23:30;;;;;;;7.07;5.20;;;6.70;68.40;;;;;;5050247;28;20029;-84
2021/03/15 08:26:03;;;;;;;9.13;6.40;;;6.60;68.50;;;;;;5047343;28;20026;-84
2021/03/15 08:28:31;;;;;;;7.18;5.82;;;6.70;68.40;;;;;;5041634;28;20025;-84
2021/03/15 08:31:01;;;;;;;10.60;4.43;;;6.80;68.30;;;;;;5036646;28;20496;-84
2021/03/15 08:33:28;;;;;;;7.80;5.10;;;6.90;67.70;;;;;;5036027;28;20396;-84
2021/03/15 08:35:55;;;;;;;5.50;4.30;;;6.80;67.50;;;;;;5042896;28;20492;-85
2021/03/15 08:38:34;;;;;;;6.07;4.50;;;6.80;67.60;;;;;;5045773;28;20029;-85
2021/03/15 08:41:10;;;;;;;7.60;5.77;;;6.90;67.40;;;;;;5035893;28;20021;-84
2021/03/15 08:43:44;;;;;;;13.23;5.50;;;7.00;67.50;;;;;;5039049;28;20399;-84
2021/03/15 08:46:12;;;;;;;7.93;6.07;;;7.00;67.20;;;;;;5044545;28;20087;-84
2021/03/15 08:48:40;;;;;;;8.80;5.77;;;6.90;67.30;;;;;;5048076;28;20368;-85
2021/03/15 08:51:11;;;;;;;11.33;6.27;;;7.00;67.50;;;;;;5040690;28;20056;-84
2021/03/15 08:53:36;;;;;;;10.73;5.57;;;7.10;67.50;;;;;;5033714;28;20040;-84
2021/03/15 08:56:19;;;;;;;6.97;5.07;;;7.10;67.20;;;;;;5035236;28;20659;-84
2021/03/15 08:58:53;;;;;;;10.45;6.30;;;7.20;67.20;;;;;;5040456;28;20480;-84
2021/03/15 09:01:21;;;;;;;15.03;7.60;;;7.20;67.20;;;;;;5043532;28;20114;-84
2021/03/15 09:04:00;;;;;;;10.57;6.20;;;7.30;67.10;;;;;;5038335;28;20160;-84
2021/03/15 09:06:38;;;;;;;24.33;8.37;;;7.30;67.00;;;;;;5045129;28;20040;-84
2021/03/15 09:09:12;;;;;;;17.77;8.20;;;7.30;67.10;;;;;;5044316;28;20025;-84
2021/03/15 09:11:37;;;;;;;11.17;6.07;;;7.40;67.10;;;;;;5043937;28;20021;-84
2021/03/15 09:14:25;;;;;;;8.03;5.90;;;7.50;66.90;;;;;;5042024;28;20040;-84
2021/03/15 09:16:54;;;;;;;19.63;7.73;;;7.60;66.80;;;;;;5041651;28;20025;-84
2021/03/15 09:19:24;;;;;;;15.10;6.63;;;7.60;66.60;;;;;;5041915;28;20060;-84
2021/03/15 09:22:18;;;;;;;9.57;5.33;;;7.70;66.10;;;;;;5040778;28;20032;-84
2021/03/15 09:24:59;;;;;;;13.63;6.33;;;7.70;65.80;;;;;;5033512;28;20045;-84
2021/03/15 09:27:27;;;;;;;6.30;4.43;;;7.70;65.60;;;;;;5041852;28;20494;-84
2021/03/15 09:30:09;;;;;;;11.27;5.67;;;7.70;65.60;;;;;;5039920;28;20049;-84
2021/03/15 09:32:41;;;;;;;24.65;10.88;;;7.60;65.60;;;;;;5045001;28;20064;-84
2021/03/15 09:35:19;;;;;;;9.07;6.23;;;7.70;65.50;;;;;;5045879;28;20045;-84
2021/03/15 09:38:09;;;;;;;6.33;4.43;;;7.70;65.40;;;;;;5039174;28;20365;-84
2021/03/15 09:40:41;;;;;;;10.70;5.47;;;7.70;65.60;;;;;;5036314;28;20037;-84
2021/03/15 09:43:08;;;;;;;7.65;3.85;;;7.80;65.50;;;;;;5045226;28;20036;-84
2021/03/15 09:45:39;;;;;;;5.33;3.20;;;7.80;64.70;;;;;;5042645;28;20036;-84
2021/03/15 09:48:18;;;;;;;6.90;3.87;;;7.70;64.40;;;;;;5040362;28;20029;-84
2021/03/15 09:50:52;;;;;;;2.83;2.40;;;7.50;64.80;;;;;;5037858;28;20025;-84
2021/03/15 09:53:18;;;;;;;5.70;3.73;;;7.40;64.60;;;;;;5037037;28;20055;-84
2021/03/15 09:55:44;;;;;;;5.80;2.83;;;7.40;64.80;;;;;;5038913;28;20055;-84
2021/03/15 09:58:16;;;;;;;4.67;2.67;;;7.50;64.80;;;;;;5039201;28;20029;-84
2021/03/15 10:00:45;;;;;;;7.43;2.50;;;7.50;64.70;;;;;;5044506;28;20052;-84
2021/03/15 10:03:22;;;;;;;8.13;2.30;;;7.50;64.60;;;;;;5052789;28;20072;-84
2021/03/15 10:05:55;;;;;;;3.40;2.30;;;7.70;64.70;;;;;;5042264;28;20029;-84
2021/03/15 10:08:26;;;;;;;3.50;2.57;;;7.70;64.40;;;;;;5050955;28;20025;-84
2021/03/15 10:10:51;;;;;;;3.43;2.83;;;7.70;64.30;;;;;;5037424;28;20088;-84
2021/03/15 10:13:17;;;;;;;4.13;2.90;;;7.80;64.30;;;;;;5041002;28;20557;-84
2021/03/15 10:15:45;;;;;;;3.90;2.37;;;7.70;64.30;;;;;;5034752;28;20358;-84
2021/03/15 10:18:19;;;;;;;3.47;2.33;;;7.60;64.00;;;;;;5037926;28;20033;-84
2021/03/15 10:20:45;;;;;;;5.93;2.40;;;7.50;63.90;;;;;;5040971;28;20368;-84
2021/03/15 10:23:23;;;;;;;6.10;3.00;;;7.60;64.20;;;;;;5051318;28;20411;-84
2021/03/15 10:25:57;;;;;;;4.00;2.73;;;7.60;64.20;;;;;;5046976;28;20472;-84
2021/03/15 10:28:25;;;;;;;3.70;2.20;;;7.50;64.20;;;;;;5050277;28;20175;-84
2021/03/15 10:30:51;;;;;;;4.70;2.27;;;7.40;64.10;;;;;;5036409;28;20033;-84
2021/03/15 10:33:21;;;;;;;5.87;2.60;;;7.40;64.50;;;;;;5035007;28;20037;-84
2021/03/15 10:35:48;;;;;;;7.10;2.47;;;7.50;64.40;;;;;;5054710;28;20044;-84
2021/03/15 10:38:14;;;;;;;7.03;2.67;;;7.60;64.20;;;;;;5047006;28;20029;-84
2021/03/15 10:40:41;;;;;;;3.97;2.47;;;7.70;64.00;;;;;;5046361;28;20093;-84
2021/03/15 10:43:07;;;;;;;4.97;1.93;;;7.70;63.90;;;;;;5048803;28;20395;-84
2021/03/15 10:45:33;;;;;;;4.33;2.20;;;7.60;63.50;;;;;;5041485;28;20025;-84
2021/03/15 10:48:04;;;;;;;3.70;1.70;;;7.70;63.70;;;;;;5049529;28;20369;-84
2021/03/15 10:50:42;;;;;;;3.53;1.97;;;7.70;63.10;;;;;;5042817;28;20029;-84
2021/03/15 10:53:21;;;;;;;3.63;2.00;;;7.70;63.20;;;;;;5052531;28;20029;-84
2021/03/15 10:55:46;;;;;;;4.10;2.33;;;7.80;63.00;;;;;;5037667;28;20037;-84
2021/03/15 10:58:14;;;;;;;5.07;2.30;;;7.80;62.90;;;;;;5045468;28;20041;-84
2021/03/15 11:00:45;;;;;;;5.73;3.00;;;7.80;62.80;;;;;;5044846;28;20048;-84
2021/03/15 11:03:29;;;;;;;4.77;2.83;;;7.90;63.00;;;;;;5044513;28;20468;-84
2021/03/15 11:06:17;;;;;;;3.47;2.10;;;8.00;63.20;;;;;;5040553;28;20026;-84
2021/03/15 11:08:54;;;;;;;5.40;2.83;;;7.90;62.80;;;;;;5048071;28;20037;-84
2021/03/15 11:11:25;;;;;;;9.00;2.77;;;7.90;63.00;;;;;;5041948;28;20040;-84
2021/03/15 11:13:53;;;;;;;6.20;3.23;;;7.90;63.00;;;;;;5048943;28;20439;-84
2021/03/15 11:16:30;;;;;;;6.50;3.17;;;8.00;63.30;;;;;;5044560;28;20450;-84
2021/03/15 11:19:04;;;;;;;6.93;1.87;;;8.10;63.30;;;;;;5036110;28;20034;-84
2021/03/15 11:21:35;;;;;;;5.47;1.73;;;8.10;62.70;;;;;;5054472;28;20051;-84
2021/03/15 11:24:01;;;;;;;2.70;1.27;;;7.90;62.20;;;;;;5035676;28;20018;-84
2021/03/15 11:26:27;;;;;;;1.37;0.80;;;7.80;62.00;;;;;;5035102;28;20033;-84
2021/03/15 11:28:56;;;;;;;1.90;1.03;;;7.70;62.00;;;;;;5046606;28;20041;-84
2021/03/15 11:31:30;;;;;;;1.77;1.50;;;7.70;62.20;;;;;;5042648;28;20033;-84
2021/03/15 11:34:02;;;;;;;2.37;1.30;;;7.60;61.70;;;;;;5038478;28;20450;-84
2021/03/15 11:36:33;;;;;;;2.88;1.73;;;7.50;62.20;;;;;;5042524;28;20029;-84
2021/03/15 11:39:04;;;;;;;2.70;1.70;;;7.70;62.30;;;;;;5045888;28;20036;-84
2021/03/15 11:41:32;;;;;;;3.17;1.80;;;7.70;62.10;;;;;;5040222;28;20048;-84
2021/03/15 11:43:59;;;;;;;3.47;2.17;;;7.70;62.20;;;;;;5036595;28;20022;-84
2021/03/15 11:46:24;;;;;;;5.47;2.23;;;7.70;61.80;;;;;;5043830;28;20045;-84
2021/03/15 11:48:50;;;;;;;3.30;1.00;;;7.60;61.80;;;;;;5040756;28;20075;-84
2021/03/15 11:51:17;;;;;;;3.30;2.20;;;7.50;62.10;;;;;;5038450;28;20033;-84
2021/03/15 11:53:44;;;;;;;3.67;2.17;;;7.50;62.60;;;;;;5053151;28;20032;-84
2021/03/15 11:56:11;;;;;;;2.47;1.93;;;7.50;62.40;;;;;;5045581;28;20382;-84
2021/03/15 11:58:37;;;;;;;3.50;2.10;;;7.50;62.70;;;;;;5045904;28;20099;-84
2021/03/15 12:01:04;;;;;;;3.87;2.63;;;7.50;62.90;;;;;;5045112;28;20026;-84
2021/03/15 12:03:29;;;;;;;4.17;2.27;;;7.50;63.00;;;;;;5048309;28;20029;-84
2021/03/15 12:05:55;;;;;;;3.93;2.00;;;7.40;63.20;;;;;;5046299;28;20532;-84
2021/03/15 12:08:21;;;;;;;3.10;2.10;;;7.40;63.60;;;;;;5047312;28;20029;-84
2021/03/15 12:10:47;;;;;;;3.53;2.23;;;7.50;63.80;;;;;;5044329;28;20022;-84
2021/03/15 12:13:13;;;;;;;4.43;2.27;;;7.60;63.80;;;;;;5037941;28;20043;-84
2021/03/15 12:15:38;;;;;;;4.33;2.90;;;7.60;63.70;;;;;;5037432;28;20029;-84
2021/03/15 12:18:08;;;;;;;5.73;2.50;;;7.50;63.90;;;;;;5038785;28;20059;-84
2021/03/15 12:20:35;;;;;;;3.27;2.20;;;7.50;64.00;;;;;;5045371;28;20874;-84
2021/03/15 12:23:01;;;;;;;3.77;1.30;;;7.60;64.30;;;;;;5047983;28;20025;-84
2021/03/15 12:25:27;;;;;;;2.57;1.37;;;7.60;63.90;;;;;;5040269;28;20024;-84
2021/03/15 12:27:53;;;;;;;3.50;1.63;;;7.40;64.00;;;;;;5039706;28;20933;-85
2021/03/15 12:30:20;;;;;;;3.53;1.77;;;7.40;64.00;;;;;;5041234;28;20040;-85
2021/03/15 12:32:46;;;;;;;3.97;2.20;;;7.30;64.20;;;;;;5049397;28;20052;-84
2021/03/15 12:35:13;;;;;;;2.57;2.00;;;7.20;64.70;;;;;;5041467;28;20099;-85
2021/03/15 12:37:39;;;;;;;4.63;3.43;;;7.30;65.10;;;;;;5040056;28;20026;-85
2021/03/15 12:40:05;;;;;;;4.73;3.57;;;7.30;65.30;;;;;;5043659;28;20035;-85
2021/03/15 12:42:31;;;;;;;4.77;2.00;;;7.20;65.00;;;;;;5052697;28;20030;-85
2021/03/15 12:44:57;;;;;;;6.70;2.30;;;7.00;65.30;;;;;;5045067;28;20028;-85
2021/03/15 12:47:22;;;;;;;3.00;2.30;;;7.00;66.10;;;;;;5055904;28;20036;-85
2021/03/15 12:49:50;;;;;;;5.07;2.47;;;7.10;66.00;;;;;;5042505;28;20420;-85
2021/03/15 12:52:16;;;;;;;3.73;2.80;;;7.00;65.90;;;;;;5055889;28;20029;-84
2021/03/15 12:54:42;;;;;;;4.47;2.37;;;6.90;66.30;;;;;;5046220;28;20041;-84
2021/03/15 12:57:08;;;;;;;4.20;1.80;;;6.80;66.80;;;;;;5040322;28;20063;-85
2021/03/15 12:59:33;;;;;;;7.50;3.13;;;6.80;66.60;;;;;;5052204;28;20033;-85
2021/03/15 13:01:59;;;;;;;5.17;3.20;;;6.70;67.10;;;;;;5044531;28;20026;-84
2021/03/15 13:04:25;;;;;;;2.97;2.30;;;6.70;67.70;;;;;;5046101;28;20025;-85
2021/03/15 13:06:51;;;;;;;2.97;2.50;;;6.70;67.70;;;;;;5055787;28;20026;-85